Edwards Crossroads, North Carolina
Current Conditions -  °F | °C
As of 1:55 PM on Friday 21 Nov 2014 (Local Time) from KGEV Reporting Station
Clear Clear  
Wind Chill: 36°   Ceiling: Unl
Heat Index: 41°   Visibility: 10mi
Dew Point: -12°   Wind: 8mph
Humidity: 10%   Direction: 320°NW
Pressure: 30.33"   Gusts: NA
Location:  36.5212°N, 81.1574°W
Report Text: KGEV 211855Z AUTO 32007KT 10SM CLR 05/M25 A3033 RMK AO2 T00491246
Loading
Personal Weather Stations






























Interactive Weather Map New forecast layout! Learn more

10-Day Weather Forecast

Advertisements
Track Severe Weather on mobile